createdAt,value
2017-05-06T00:00:27.750Z,1010.52
2017-05-06T00:01:27.755Z,1010.48
2017-05-06T00:02:27.763Z,1010.48
2017-05-06T00:03:27.769Z,1010.48
2017-05-06T00:04:27.777Z,1010.47
2017-05-06T00:05:27.782Z,1010.47
2017-05-06T00:06:27.789Z,1010.47
2017-05-06T00:07:27.795Z,1010.48
2017-05-06T00:08:27.802Z,1010.44
2017-05-06T00:09:27.808Z,1010.47
2017-05-06T00:10:27.815Z,1010.49
2017-05-06T00:11:27.820Z,1010.43
2017-05-06T00:12:27.828Z,1010.43
2017-05-06T00:13:27.834Z,1010.44
2017-05-06T00:14:27.841Z,1010.44
2017-05-06T00:15:27.847Z,1010.42
2017-05-06T00:16:27.854Z,1010.42
2017-05-06T00:17:27.860Z,1010.42
2017-05-06T00:18:27.867Z,1010.43
2017-05-06T00:19:27.873Z,1010.41
2017-05-06T00:20:27.882Z,1010.42
2017-05-06T00:21:27.936Z,1010.38
2017-05-06T00:22:27.942Z,1010.38
2017-05-06T00:23:27.899Z,1010.36
2017-05-06T00:24:27.907Z,1010.39
2017-05-06T00:25:27.913Z,1010.37
2017-05-06T00:26:27.968Z,1010.35
2017-05-06T00:27:27.926Z,1010.37
2017-05-06T00:28:27.932Z,1010.35
2017-05-06T00:29:27.939Z,1010.33
2017-05-06T00:30:27.945Z,1010.34
2017-05-06T00:31:27.952Z,1010.33
2017-05-06T00:32:27.958Z,1010.32
2017-05-06T00:33:27.965Z,1010.32
2017-05-06T00:34:27.979Z,1010.31
2017-05-06T00:35:27.976Z,1010.31
2017-05-06T00:36:27.987Z,1010.29
2017-05-06T00:37:28.042Z,1010.29
2017-05-06T00:38:28.046Z,1010.26
2017-05-06T00:39:28.003Z,1010.27
2017-05-06T00:40:28.042Z,1010.24
2017-05-06T00:41:28.018Z,1010.2
2017-05-06T00:42:28.074Z,1010.23
2017-05-06T00:43:28.031Z,1010.2
2017-05-06T00:44:28.038Z,1010.21
2017-05-06T00:45:28.043Z,1010.16
2017-05-06T00:46:28.051Z,1010.17
2017-05-06T00:47:28.057Z,1010.15
2017-05-06T00:48:28.062Z,1010.14
2017-05-06T00:49:28.070Z,1010.13
2017-05-06T00:50:28.074Z,1010.14
2017-05-06T00:51:28.082Z,1010.11
2017-05-06T00:52:28.089Z,1010.16
2017-05-06T00:53:28.146Z,1010.16
2017-05-06T00:54:28.102Z,1010.14
2017-05-06T00:55:28.111Z,1010.13
2017-05-06T00:56:28.115Z,1010.12
2017-05-06T00:57:28.122Z,1010.14
2017-05-06T00:58:28.178Z,1010.12
2017-05-06T00:59:28.134Z,1010.09
2017-05-06T01:00:28.141Z,1010.12
2017-05-06T01:01:28.148Z,1010.08
2017-05-06T01:02:28.154Z,1010.05
2017-05-06T01:03:28.165Z,1010.08
2017-05-06T01:04:28.167Z,1010.04
2017-05-06T01:05:28.174Z,1010.05
2017-05-06T01:06:28.229Z,1009.99
2017-05-06T01:07:28.186Z,1010.04
2017-05-06T01:08:28.194Z,1009.99
2017-05-06T01:09:28.202Z,1009.96
2017-05-06T01:10:28.206Z,1009.95
2017-05-06T01:11:28.212Z,1009.93
2017-05-06T01:12:28.250Z,1009.96
2017-05-06T01:13:28.226Z,1009.92
2017-05-06T01:14:28.282Z,1009.92
2017-05-06T01:15:28.239Z,1009.91
2017-05-06T01:16:28.245Z,1009.91
2017-05-06T01:17:28.251Z,1009.9
2017-05-06T01:18:28.258Z,1009.88
2017-05-06T01:19:28.265Z,1009.88
2017-05-06T01:20:28.270Z,1009.87
2017-05-06T01:21:28.278Z,1009.85
2017-05-06T01:22:28.284Z,1009.85
2017-05-06T01:23:28.290Z,1009.82
2017-05-06T01:24:28.296Z,1009.83
2017-05-06T01:25:28.303Z,1009.82
2017-05-06T01:26:28.310Z,1009.79
2017-05-06T01:27:28.317Z,1009.8
2017-05-06T01:28:28.322Z,1009.79
2017-05-06T01:29:28.330Z,1009.78
2017-05-06T01:30:28.336Z,1009.75
2017-05-06T01:31:28.341Z,1009.77
2017-05-06T01:32:28.400Z,1009.76
2017-05-06T01:33:28.355Z,1009.79
2017-05-06T01:34:28.362Z,1009.75
2017-05-06T01:35:28.367Z,1009.73
2017-05-06T01:36:28.374Z,1009.7
2017-05-06T01:37:28.380Z,1009.69
2017-05-06T01:38:28.389Z,1009.65
2017-05-06T01:39:28.394Z,1009.68
2017-05-06T01:40:28.401Z,1009.66
2017-05-06T01:41:28.406Z,1009.63
2017-05-06T01:42:28.413Z,1009.65
2017-05-06T01:43:28.419Z,1009.66
2017-05-06T01:44:28.424Z,1009.63
2017-05-06T01:45:28.432Z,1009.62
2017-05-06T01:46:28.439Z,1009.64
2017-05-06T01:47:28.446Z,1009.64
2017-05-06T01:48:28.453Z,1009.67
2017-05-06T01:49:28.509Z,1009.63
2017-05-06T01:50:28.465Z,1009.62
2017-05-06T01:51:28.471Z,1009.62
2017-05-06T01:52:28.528Z,1009.6
2017-05-06T01:53:28.485Z,1009.57
2017-05-06T01:54:28.541Z,1009.56
2017-05-06T01:55:28.497Z,1009.56
2017-05-06T01:56:28.555Z,1009.58
2017-05-06T01:57:28.510Z,1009.6
2017-05-06T01:58:28.518Z,1009.59
2017-05-06T01:59:28.524Z,1009.6
2017-05-06T02:00:28.529Z,1009.56
2017-05-06T02:01:28.535Z,1009.56
2017-05-06T02:02:28.543Z,1009.55
2017-05-06T02:03:28.548Z,1009.51
2017-05-06T02:04:28.555Z,1009.5
2017-05-06T02:05:28.561Z,1009.51
2017-05-06T02:06:28.567Z,1009.53
2017-05-06T02:07:28.574Z,1009.51
2017-05-06T02:08:28.581Z,1009.53
2017-05-06T02:09:28.587Z,1009.53
2017-05-06T02:10:28.594Z,1009.54
2017-05-06T02:11:28.604Z,1009.48
2017-05-06T02:12:28.606Z,1009.48
2017-05-06T02:13:28.612Z,1009.5
2017-05-06T02:14:28.620Z,1009.47
2017-05-06T02:15:28.625Z,1009.5
2017-05-06T02:16:28.632Z,1009.47
2017-05-06T02:17:28.637Z,1009.51
2017-05-06T02:18:28.645Z,1009.49
2017-05-06T02:19:28.650Z,1009.47
2017-05-06T02:20:28.734Z,1009.47
2017-05-06T02:21:28.664Z,1009.47
2017-05-06T02:22:28.670Z,1009.48
2017-05-06T02:23:28.676Z,1009.42
2017-05-06T02:24:28.683Z,1009.44
2017-05-06T02:25:28.691Z,1009.41
2017-05-06T02:26:28.698Z,1009.44
2017-05-06T02:27:28.753Z,1009.43
2017-05-06T02:28:28.709Z,1009.42
2017-05-06T02:29:28.770Z,1009.44
2017-05-06T02:30:28.722Z,1009.43
2017-05-06T02:31:28.728Z,1009.41
2017-05-06T02:32:28.732Z,1009.38
2017-05-06T02:33:28.740Z,1009.33
2017-05-06T02:34:28.747Z,1009.36
2017-05-06T02:35:28.752Z,1009.35
2017-05-06T02:36:28.759Z,1009.36
2017-05-06T02:37:28.766Z,1009.37
2017-05-06T02:38:28.771Z,1009.32
2017-05-06T02:39:28.779Z,1009.31
2017-05-06T02:40:28.786Z,1009.31
2017-05-06T02:41:28.791Z,1009.3
2017-05-06T02:42:28.798Z,1009.29
2017-05-06T02:43:28.803Z,1009.29
2017-05-06T02:44:28.811Z,1009.28
2017-05-06T02:45:28.818Z,1009.3
2017-05-06T02:46:28.824Z,1009.29
2017-05-06T02:47:28.881Z,1009.29
2017-05-06T02:48:28.836Z,1009.28
2017-05-06T02:49:28.844Z,1009.29
2017-05-06T02:50:28.850Z,1009.31
2017-05-06T02:51:28.857Z,1009.33
2017-05-06T02:52:28.912Z,1009.29
2017-05-06T02:53:28.869Z,1009.3
2017-05-06T02:54:28.875Z,1009.32
2017-05-06T02:55:28.879Z,1009.3
2017-05-06T02:56:28.887Z,1009.28
2017-05-06T02:57:28.896Z,1009.26
2017-05-06T02:58:28.901Z,1009.24
2017-05-06T02:59:28.906Z,1009.25
2017-05-06T03:00:28.913Z,1009.24
2017-05-06T03:01:28.921Z,1009.25
2017-05-06T03:02:28.926Z,1009.25
2017-05-06T03:03:28.933Z,1009.22
2017-05-06T03:04:28.939Z,1009.21
2017-05-06T03:05:28.946Z,1009.27
2017-05-06T03:06:28.949Z,1009.26
2017-05-06T03:07:28.957Z,1009.23
2017-05-06T03:08:28.965Z,1009.22
2017-05-06T03:09:28.971Z,1009.23
2017-05-06T03:10:28.977Z,1009.23
2017-05-06T03:11:28.983Z,1009.22
2017-05-06T03:12:28.991Z,1009.24
2017-05-06T03:13:29.047Z,1009.22
2017-05-06T03:14:29.052Z,1009.2
2017-05-06T03:15:29.009Z,1009.19
2017-05-06T03:16:29.015Z,1009.14
2017-05-06T03:17:29.020Z,1009.14
2017-05-06T03:18:29.025Z,1009.17
2017-05-06T03:19:29.034Z,1009.15
2017-05-06T03:20:29.041Z,1009.15
2017-05-06T03:21:29.046Z,1009.11
2017-05-06T03:22:29.102Z,1009.13
2017-05-06T03:23:29.060Z,1009.14
2017-05-06T03:24:29.066Z,1009.11
2017-05-06T03:25:29.094Z,1009.08
2017-05-06T03:26:29.079Z,1009.09
2017-05-06T03:27:29.085Z,1009.07
2017-05-06T03:28:29.091Z,1009.09
2017-05-06T03:29:29.097Z,1009.07
2017-05-06T03:30:29.102Z,1009.06
2017-05-06T03:31:29.111Z,1009.06
2017-05-06T03:32:29.116Z,1009.05
2017-05-06T03:33:29.123Z,1009.08
2017-05-06T03:34:29.129Z,1009.03
2017-05-06T03:35:29.136Z,1009.04
2017-05-06T03:36:29.140Z,1009.04
2017-05-06T03:37:29.147Z,1008.99
2017-05-06T03:38:29.155Z,1009.07
2017-05-06T03:39:29.159Z,1009.03
2017-05-06T03:40:29.167Z,1009.06
2017-05-06T03:41:29.172Z,1009.05
2017-05-06T03:42:29.181Z,1009.08
2017-05-06T03:43:29.184Z,1009.09
2017-05-06T03:44:29.192Z,1009.12
2017-05-06T03:45:29.199Z,1009.09
2017-05-06T03:46:29.206Z,1009.11
2017-05-06T03:47:29.210Z,1009.12
2017-05-06T03:48:29.217Z,1009.14
2017-05-06T03:49:29.224Z,1009.09
2017-05-06T03:50:29.229Z,1009.1
2017-05-06T03:51:29.237Z,1009.1
2017-05-06T03:52:29.290Z,1009.1
2017-05-06T03:53:29.300Z,1009.1
2017-05-06T03:54:29.255Z,1009.12
2017-05-06T03:55:29.261Z,1009.06
2017-05-06T03:56:29.268Z,1009.08
2017-05-06T03:57:29.274Z,1009.07
2017-05-06T03:58:29.281Z,1009.09
2017-05-06T03:59:29.290Z,1009.03
2017-05-06T04:00:29.293Z,1009.04
2017-05-06T04:01:29.299Z,1009.04
2017-05-06T04:02:29.306Z,1009.05
2017-05-06T04:03:29.360Z,1009.05
2017-05-06T04:04:29.319Z,1009.08
2017-05-06T04:05:29.374Z,1009.1
2017-05-06T04:06:29.330Z,1009.08
2017-05-06T04:07:29.338Z,1009.09
2017-05-06T04:08:29.343Z,1009.08
2017-05-06T04:09:29.348Z,1009.1
2017-05-06T04:10:29.355Z,1009.09
2017-05-06T04:11:29.363Z,1009.06
2017-05-06T04:12:29.368Z,1009.06
2017-05-06T04:13:29.374Z,1009.05
2017-05-06T04:14:29.431Z,1009.07
2017-05-06T04:15:29.438Z,1009.07
2017-05-06T04:16:29.393Z,1009.02
2017-05-06T04:17:29.399Z,1009.08
2017-05-06T04:18:29.405Z,1009.11
2017-05-06T04:19:29.412Z,1009.1
2017-05-06T04:20:29.469Z,1009.08
2017-05-06T04:21:29.426Z,1009.13
2017-05-06T04:22:29.432Z,1009.1
2017-05-06T04:23:29.437Z,1009.08
2017-05-06T04:24:29.493Z,1009.07
2017-05-06T04:25:29.451Z,1009.08
2017-05-06T04:26:29.458Z,1009.08
2017-05-06T04:27:29.462Z,1009.06
2017-05-06T04:28:29.470Z,1009.05
2017-05-06T04:29:29.475Z,1009
2017-05-06T04:30:29.532Z,1009
2017-05-06T04:31:29.487Z,1009.02
2017-05-06T04:32:29.494Z,1008.99
2017-05-06T04:33:29.502Z,1008.96
2017-05-06T04:34:29.507Z,1008.96
2017-05-06T04:35:29.514Z,1008.93
2017-05-06T04:36:29.570Z,1008.93
2017-05-06T04:37:29.526Z,1008.94
2017-05-06T04:38:29.533Z,1008.92
2017-05-06T04:39:29.538Z,1008.9
2017-05-06T04:40:29.547Z,1008.92
2017-05-06T04:41:29.553Z,1008.92
2017-05-06T04:42:29.559Z,1008.93
2017-05-06T04:43:29.565Z,1008.92
2017-05-06T04:44:29.572Z,1008.93
2017-05-06T04:45:29.578Z,1008.93
2017-05-06T04:46:29.583Z,1008.9
2017-05-06T04:47:29.592Z,1008.94
2017-05-06T04:48:29.597Z,1008.91
2017-05-06T04:49:29.603Z,1008.9
2017-05-06T04:50:29.609Z,1008.93
2017-05-06T04:51:29.616Z,1008.92
2017-05-06T04:52:29.621Z,1008.9
2017-05-06T04:53:29.627Z,1008.9
2017-05-06T04:54:29.636Z,1008.85
2017-05-06T04:55:29.641Z,1008.86
2017-05-06T04:56:29.648Z,1008.8
2017-05-06T04:57:29.652Z,1008.81
2017-05-06T04:58:29.661Z,1008.76
2017-05-06T04:59:29.668Z,1008.72
2017-05-06T05:00:29.672Z,1008.74
2017-05-06T05:01:29.729Z,1008.7
2017-05-06T05:02:29.685Z,1008.69
2017-05-06T05:03:29.692Z,1008.66
2017-05-06T05:04:29.698Z,1008.61
2017-05-06T05:05:29.704Z,1008.62
2017-05-06T05:06:29.710Z,1008.62
2017-05-06T05:07:29.717Z,1008.61
2017-05-06T05:08:29.724Z,1008.63
2017-05-06T05:09:29.731Z,1008.64
2017-05-06T05:10:29.736Z,1008.64
2017-05-06T05:11:29.742Z,1008.64
2017-05-06T05:12:29.749Z,1008.64
2017-05-06T05:13:29.756Z,1008.63
2017-05-06T05:14:29.761Z,1008.61
2017-05-06T05:15:29.766Z,1008.59
2017-05-06T05:16:29.774Z,1008.57
2017-05-06T05:17:29.781Z,1008.63
2017-05-06T05:18:29.836Z,1008.58
2017-05-06T05:19:29.792Z,1008.59
2017-05-06T05:20:29.800Z,1008.55
2017-05-06T05:21:29.806Z,1008.59
2017-05-06T05:22:29.812Z,1008.56
2017-05-06T05:23:29.818Z,1008.54
2017-05-06T05:24:29.874Z,1008.52
2017-05-06T05:25:29.830Z,1008.52
2017-05-06T05:26:29.837Z,1008.54
2017-05-06T05:27:29.843Z,1008.57
2017-05-06T05:28:29.850Z,1008.58
2017-05-06T05:29:29.855Z,1008.58
2017-05-06T05:30:29.912Z,1008.57
2017-05-06T05:31:29.918Z,1008.52
2017-05-06T05:32:29.875Z,1008.52
2017-05-06T05:33:29.882Z,1008.53
2017-05-06T05:34:29.887Z,1008.49
2017-05-06T05:35:29.928Z,1008.52
2017-05-06T05:36:29.899Z,1008.51
2017-05-06T05:37:29.913Z,1008.48
2017-05-06T05:38:29.913Z,1008.5
2017-05-06T05:39:29.921Z,1008.51
2017-05-06T05:40:30.005Z,1008.52
2017-05-06T05:41:29.931Z,1008.53
2017-05-06T05:42:29.939Z,1008.47
2017-05-06T05:43:29.945Z,1008.49
2017-05-06T05:44:29.951Z,1008.44
2017-05-06T05:45:29.958Z,1008.47
2017-05-06T05:46:30.014Z,1008.43
2017-05-06T05:47:29.970Z,1008.42
2017-05-06T05:48:29.977Z,1008.41
2017-05-06T05:49:29.983Z,1008.44
2017-05-06T05:50:29.990Z,1008.42
2017-05-06T05:51:29.994Z,1008.45
2017-05-06T05:52:30.003Z,1008.44
2017-05-06T05:53:30.011Z,1008.42
2017-05-06T05:54:30.015Z,1008.42
2017-05-06T05:55:30.022Z,1008.43
2017-05-06T05:56:30.080Z,1008.37
2017-05-06T05:57:30.036Z,1008.38
2017-05-06T05:58:30.040Z,1008.38
2017-05-06T05:59:30.046Z,1008.37
2017-05-06T06:00:30.054Z,1008.4
2017-05-06T06:01:30.060Z,1008.37
2017-05-06T06:02:30.068Z,1008.36
2017-05-06T06:03:30.074Z,1008.35
2017-05-06T06:04:30.081Z,1008.33
2017-05-06T06:05:30.136Z,1008.34
2017-05-06T06:06:30.094Z,1008.35
2017-05-06T06:07:30.100Z,1008.31
2017-05-06T06:08:30.107Z,1008.33
2017-05-06T06:09:30.112Z,1008.3
2017-05-06T06:10:30.119Z,1008.31
2017-05-06T06:11:30.126Z,1008.32
2017-05-06T06:12:30.182Z,1008.34
2017-05-06T06:13:30.188Z,1008.34
2017-05-06T06:14:30.144Z,1008.31
2017-05-06T06:15:30.150Z,1008.32
2017-05-06T06:16:30.156Z,1008.34
2017-05-06T06:17:30.163Z,1008.3
2017-05-06T06:18:30.171Z,1008.3
2017-05-06T06:19:30.180Z,1008.31
2017-05-06T06:20:30.182Z,1008.31
2017-05-06T06:21:30.188Z,1008.29
2017-05-06T06:22:30.196Z,1008.31
2017-05-06T06:23:30.202Z,1008.3
2017-05-06T06:24:30.209Z,1008.29
2017-05-06T06:25:30.264Z,1008.32
2017-05-06T06:26:30.221Z,1008.29
2017-05-06T06:27:30.276Z,1008.28
2017-05-06T06:28:30.232Z,1008.28
2017-05-06T06:29:30.241Z,1008.26
2017-05-06T06:30:30.248Z,1008.25
2017-05-06T06:31:30.252Z,1008.28
2017-05-06T06:32:30.259Z,1008.2
2017-05-06T06:33:30.316Z,1008.23
2017-05-06T06:34:30.273Z,1008.19
2017-05-06T06:35:30.331Z,1008.22
2017-05-06T06:36:30.285Z,1008.17
2017-05-06T06:37:30.294Z,1008.17
2017-05-06T06:38:30.298Z,1008.18
2017-05-06T06:39:30.356Z,1008.18
2017-05-06T06:40:30.312Z,1008.16
2017-05-06T06:41:30.319Z,1008.2
2017-05-06T06:42:30.324Z,1008.16
2017-05-06T06:43:30.331Z,1008.2
2017-05-06T06:44:30.338Z,1008.19
2017-05-06T06:45:30.345Z,1008.17
2017-05-06T06:46:30.351Z,1008.21
2017-05-06T06:47:30.358Z,1008.35
2017-05-06T06:48:30.365Z,1008.77
2017-05-06T06:49:30.372Z,1008.95
2017-05-06T06:50:30.379Z,1008.84
2017-05-06T06:51:30.388Z,1008.83
2017-05-06T06:52:30.446Z,1009.04
2017-05-06T06:53:30.399Z,1008.88
2017-05-06T06:54:30.409Z,1008.97
2017-05-06T06:55:30.419Z,1009.04
2017-05-06T06:56:30.427Z,1009.07
2017-05-06T06:57:30.435Z,1009
2017-05-06T06:58:30.444Z,1009.09
2017-05-06T06:59:30.453Z,1009.15
2017-05-06T07:00:30.464Z,1009.26
2017-05-06T07:01:30.473Z,1009.24
2017-05-06T07:02:30.482Z,1009.29
2017-05-06T07:03:30.493Z,1009.24
2017-05-06T07:04:30.502Z,1009.32
2017-05-06T07:05:30.511Z,1009.36
2017-05-06T07:06:30.520Z,1009.42
2017-05-06T07:07:30.532Z,1009.2
2017-05-06T07:08:30.541Z,1009.17
2017-05-06T07:09:30.553Z,1009.28
2017-05-06T07:10:30.561Z,1009.28
2017-05-06T07:11:30.571Z,1009.36
2017-05-06T07:12:30.584Z,1009.49
2017-05-06T07:13:30.595Z,1009.47
2017-05-06T07:14:30.604Z,1009.4
2017-05-06T07:15:30.614Z,1009.42
2017-05-06T07:16:30.625Z,1009.45
2017-05-06T07:17:30.637Z,1009.4
2017-05-06T07:18:30.647Z,1009.33
2017-05-06T07:19:30.657Z,1008.96
2017-05-06T07:20:30.967Z,1008.16
2017-05-06T07:21:30.679Z,1007.76
2017-05-06T07:22:30.690Z,1007.73
2017-05-06T07:23:30.702Z,1007.7
2017-05-06T07:24:30.709Z,1007.67
2017-05-06T07:25:30.769Z,1007.62
2017-05-06T07:26:30.725Z,1007.66
2017-05-06T07:27:30.736Z,1007.68
2017-05-06T07:28:30.744Z,1007.65
2017-05-06T07:29:30.755Z,1007.66
2017-05-06T07:30:30.812Z,1007.6
2017-05-06T07:31:30.771Z,1007.65
2017-05-06T07:32:30.780Z,1007.6
2017-05-06T07:33:30.787Z,1007.61
2017-05-06T07:34:30.846Z,1007.55
2017-05-06T07:35:30.804Z,1007.54
2017-05-06T07:36:30.812Z,1007.56
2017-05-06T07:37:30.818Z,1007.53
2017-05-06T07:38:30.825Z,1007.5
2017-05-06T07:39:30.834Z,1007.49
2017-05-06T07:40:30.842Z,1007.51
2017-05-06T07:41:30.848Z,1007.49
2017-05-06T07:42:30.855Z,1007.49
2017-05-06T07:43:30.865Z,1007.46
2017-05-06T07:44:30.871Z,1007.52
2017-05-06T07:45:30.878Z,1007.42
2017-05-06T07:46:30.888Z,1007.46
2017-05-06T07:47:30.892Z,1007.39
2017-05-06T07:48:30.901Z,1007.42
2017-05-06T07:49:30.908Z,1007.41
2017-05-06T07:50:30.916Z,1007.34
2017-05-06T07:51:30.923Z,1007.34
2017-05-06T07:52:30.929Z,1007.34
2017-05-06T07:53:30.937Z,1007.37
2017-05-06T07:54:30.944Z,1007.32
2017-05-06T07:55:30.951Z,1007.36
2017-05-06T07:56:30.959Z,1007.41
2017-05-06T07:57:30.966Z,1007.33
2017-05-06T07:58:30.973Z,1007.33
2017-05-06T07:59:31.031Z,1007.31
2017-05-06T08:00:30.987Z,1007.34
2017-05-06T08:01:31.295Z,1007.33
2017-05-06T08:02:31.001Z,1007.32
2017-05-06T08:03:31.009Z,1007.26
2017-05-06T08:04:31.020Z,1007.26
2017-05-06T08:05:31.023Z,1007.32
2017-05-06T08:06:31.030Z,1007.23
2017-05-06T08:07:31.038Z,1007.21
2017-05-06T08:08:31.046Z,1007.25
2017-05-06T08:09:31.055Z,1007.19
2017-05-06T08:10:31.060Z,1007.15
2017-05-06T08:11:31.067Z,1007.22
2017-05-06T08:12:31.074Z,1007.2
2017-05-06T08:13:31.081Z,1007.19
2017-05-06T08:14:31.088Z,1007.22
2017-05-06T08:15:31.094Z,1007.21
2017-05-06T08:16:31.153Z,1007.21
2017-05-06T08:17:31.110Z,1007.18
2017-05-06T08:18:31.115Z,1007.21
2017-05-06T08:19:31.124Z,1007.21
2017-05-06T08:20:31.131Z,1007.16
2017-05-06T08:21:31.138Z,1007.13
2017-05-06T08:22:31.145Z,1007.17
2017-05-06T08:23:31.153Z,1007.12
2017-05-06T08:24:31.158Z,1007.13
2017-05-06T08:25:31.165Z,1007.08
2017-05-06T08:26:31.175Z,1007.08
2017-05-06T08:27:31.180Z,1007.07
2017-05-06T08:28:31.186Z,1007.06
2017-05-06T08:29:31.194Z,1007.07
2017-05-06T08:30:31.201Z,1007.02
2017-05-06T08:31:31.259Z,1007.03
2017-05-06T08:32:31.215Z,1007.02
2017-05-06T08:33:31.222Z,1006.99
2017-05-06T08:34:31.230Z,1006.96
2017-05-06T08:35:31.286Z,1006.91
2017-05-06T08:36:31.293Z,1006.92
2017-05-06T08:37:31.251Z,1006.86
2017-05-06T08:38:31.258Z,1006.8
2017-05-06T08:39:31.263Z,1006.79
2017-05-06T08:40:31.271Z,1006.76
2017-05-06T08:41:31.278Z,1006.76
2017-05-06T08:42:31.286Z,1006.7
2017-05-06T08:43:31.292Z,1006.75
2017-05-06T08:44:31.296Z,1006.76
2017-05-06T08:45:31.300Z,1006.75
2017-05-06T08:46:31.304Z,1006.74
2017-05-06T08:47:31.356Z,1006.76
2017-05-06T08:48:31.311Z,1006.69
2017-05-06T08:49:31.313Z,1006.7
2017-05-06T08:50:31.326Z,1006.67
2017-05-06T08:51:31.314Z,1006.68
2017-05-06T08:52:31.317Z,1006.63
2017-05-06T08:53:31.319Z,1006.72
2017-05-06T08:54:31.368Z,1006.67
2017-05-06T08:55:31.321Z,1006.61
2017-05-06T08:56:31.323Z,1006.63
2017-05-06T08:57:31.322Z,1006.64
2017-05-06T08:58:31.325Z,1006.65
2017-05-06T08:59:31.327Z,1006.64
2017-05-06T09:00:31.328Z,1006.62
2017-05-06T09:01:31.329Z,1006.55
2017-05-06T09:02:31.329Z,1006.61
2017-05-06T09:03:31.333Z,1006.56
2017-05-06T09:04:31.336Z,1006.49
2017-05-06T09:05:31.386Z,1006.49
2017-05-06T09:06:31.339Z,1006.47
2017-05-06T09:07:31.342Z,1006.48
2017-05-06T09:08:31.393Z,1006.5
2017-05-06T09:09:31.345Z,1006.43
2017-05-06T09:10:31.350Z,1006.47
2017-05-06T09:11:31.355Z,1006.47
2017-05-06T09:12:31.407Z,1006.44
2017-05-06T09:13:31.362Z,1006.37
2017-05-06T09:14:31.368Z,1006.38
2017-05-06T09:15:31.421Z,1006.37
2017-05-06T09:16:31.376Z,1006.38
2017-05-06T09:17:31.431Z,1006.38
2017-05-06T09:18:31.390Z,1006.4
2017-05-06T09:19:31.448Z,1006.36
2017-05-06T09:20:31.398Z,1006.36
2017-05-06T09:21:31.404Z,1006.35
2017-05-06T09:22:31.411Z,1006.29
2017-05-06T09:23:31.415Z,1006.29
2017-05-06T09:24:31.421Z,1006.28
2017-05-06T09:25:31.477Z,1006.22
2017-05-06T09:26:31.484Z,1006.26
2017-05-06T09:27:31.489Z,1006.24
2017-05-06T09:28:31.446Z,1006.29
2017-05-06T09:29:31.452Z,1006.27
2017-05-06T09:30:31.458Z,1006.27
2017-05-06T09:31:31.463Z,1006.22
2017-05-06T09:32:31.469Z,1006.21
2017-05-06T09:33:31.476Z,1006.25
2017-05-06T09:34:31.483Z,1006.17
2017-05-06T09:35:31.491Z,1006.2
2017-05-06T09:36:31.496Z,1006.17
2017-05-06T09:37:31.501Z,1006.11
2017-05-06T09:38:31.507Z,1006.15
2017-05-06T09:39:31.514Z,1006.14
2017-05-06T09:40:31.571Z,1006.13
2017-05-06T09:41:31.529Z,1006.07
2017-05-06T09:42:31.534Z,1006.03
2017-05-06T09:43:31.542Z,1006.06
2017-05-06T09:44:31.548Z,1006.07
2017-05-06T09:45:31.555Z,1005.99
2017-05-06T09:46:31.612Z,1005.96
2017-05-06T09:47:31.568Z,1005.92
2017-05-06T09:48:31.573Z,1005.97
2017-05-06T09:49:31.580Z,1005.89
2017-05-06T09:50:31.589Z,1005.89
2017-05-06T09:51:31.595Z,1005.93
2017-05-06T09:52:31.601Z,1005.93
2017-05-06T09:53:31.607Z,1005.92
2017-05-06T09:54:31.615Z,1005.88
2017-05-06T09:55:31.622Z,1005.89
2017-05-06T09:56:31.627Z,1005.84
2017-05-06T09:57:31.635Z,1005.88
2017-05-06T09:58:31.642Z,1005.86
2017-05-06T09:59:31.648Z,1005.85
2017-05-06T10:00:31.655Z,1005.77
2017-05-06T10:01:31.712Z,1005.75
2017-05-06T10:02:31.669Z,1005.73
2017-05-06T10:03:31.675Z,1005.65
2017-05-06T10:04:31.682Z,1005.63
2017-05-06T10:05:31.696Z,1005.64
2017-05-06T10:06:31.695Z,1005.61
2017-05-06T10:07:31.752Z,1005.57
2017-05-06T10:08:31.711Z,1005.59
2017-05-06T10:09:31.717Z,1005.59
2017-05-06T10:10:31.723Z,1005.53
2017-05-06T10:11:31.730Z,1005.52
2017-05-06T10:12:31.739Z,1005.51
2017-05-06T10:13:31.745Z,1005.5
2017-05-06T10:14:31.751Z,1005.47
2017-05-06T10:15:31.758Z,1005.51
2017-05-06T10:16:31.764Z,1005.47
2017-05-06T10:17:31.773Z,1005.41
2017-05-06T10:18:31.779Z,1005.42
2017-05-06T10:19:31.785Z,1005.41
2017-05-06T10:20:31.792Z,1005.35
2017-05-06T10:21:31.797Z,1005.36
2017-05-06T10:22:31.804Z,1005.33
2017-05-06T10:23:31.812Z,1005.31
2017-05-06T10:24:31.821Z,1005.31
2017-05-06T10:25:31.826Z,1005.3
2017-05-06T10:26:31.832Z,1005.23
2017-05-06T10:27:31.840Z,1005.19
2017-05-06T10:28:31.846Z,1005.2
2017-05-06T10:29:31.903Z,1005.17
2017-05-06T10:30:31.860Z,1005.18
2017-05-06T10:31:31.868Z,1005.15
2017-05-06T10:32:31.874Z,1005.15
2017-05-06T10:33:31.880Z,1005.11
2017-05-06T10:34:31.938Z,1005.14
2017-05-06T10:35:31.894Z,1005.1
2017-05-06T10:36:31.900Z,1005.14
2017-05-06T10:37:31.908Z,1005.08
2017-05-06T10:38:31.941Z,1005.08
2017-05-06T10:39:31.972Z,1005.17
2017-05-06T10:40:31.928Z,1005.13
2017-05-06T10:41:31.935Z,1005.15
2017-05-06T10:42:31.942Z,1005.12
2017-05-06T10:43:31.949Z,1005.1
2017-05-06T10:44:32.006Z,1005.11
2017-05-06T10:45:31.963Z,1005.07
2017-05-06T10:46:31.971Z,1005.1
2017-05-06T10:47:31.977Z,1005.05
2017-05-06T10:48:31.984Z,1005.07
2017-05-06T10:49:31.991Z,1005.01
2017-05-06T10:50:31.997Z,1005.03
2017-05-06T10:51:32.005Z,1004.97
2017-05-06T10:52:32.010Z,1004.99
2017-05-06T10:53:32.018Z,1005
2017-05-06T10:54:32.024Z,1004.98
2017-05-06T10:55:32.031Z,1004.98
2017-05-06T10:56:32.040Z,1004.93
2017-05-06T10:57:32.045Z,1004.87
2017-05-06T10:58:32.051Z,1004.98
2017-05-06T10:59:32.109Z,1004.93
2017-05-06T11:00:32.065Z,1004.9
2017-05-06T11:01:32.072Z,1004.88
2017-05-06T11:02:32.079Z,1004.87
2017-05-06T11:03:32.136Z,1004.83
2017-05-06T11:04:32.093Z,1004.81
2017-05-06T11:05:32.100Z,1004.82
2017-05-06T11:06:32.107Z,1004.76
2017-05-06T11:07:32.112Z,1004.8
2017-05-06T11:08:32.122Z,1004.69
2017-05-06T11:09:32.126Z,1004.73
2017-05-06T11:10:32.134Z,1004.72
2017-05-06T11:11:32.140Z,1004.7
2017-05-06T11:12:32.147Z,1004.64
2017-05-06T11:13:32.155Z,1004.61
2017-05-06T11:14:32.212Z,1004.61
2017-05-06T11:15:32.218Z,1004.72
2017-05-06T11:16:32.175Z,1004.68
2017-05-06T11:17:32.183Z,1004.66
2017-05-06T11:18:32.188Z,1004.61
2017-05-06T11:19:32.197Z,1004.59
2017-05-06T11:20:32.201Z,1004.54
2017-05-06T11:21:32.210Z,1004.6
2017-05-06T11:22:32.217Z,1004.63
2017-05-06T11:23:32.223Z,1004.53
2017-05-06T11:24:32.231Z,1004.56
2017-05-06T11:25:32.237Z,1004.55
2017-05-06T11:26:32.244Z,1004.52
2017-05-06T11:27:32.249Z,1004.51
2017-05-06T11:28:32.259Z,1004.49
2017-05-06T11:29:32.265Z,1004.53
2017-05-06T11:30:32.275Z,1004.5
2017-05-06T11:31:32.278Z,1004.5
2017-05-06T11:32:32.333Z,1004.48
2017-05-06T11:33:32.292Z,1004.52
2017-05-06T11:34:32.347Z,1004.48
2017-05-06T11:35:32.303Z,1004.43
2017-05-06T11:36:32.312Z,1004.4
2017-05-06T11:37:32.318Z,1004.43
2017-05-06T11:38:32.324Z,1004.39
2017-05-06T11:39:32.331Z,1004.37
2017-05-06T11:40:32.389Z,1004.37
2017-05-06T11:41:32.346Z,1004.45
2017-05-06T11:42:32.352Z,1004.37
2017-05-06T11:43:32.360Z,1004.36
2017-05-06T11:44:32.366Z,1004.29
2017-05-06T11:45:32.372Z,1004.31
2017-05-06T11:46:32.378Z,1004.34
2017-05-06T11:47:32.386Z,1004.31
2017-05-06T11:48:32.392Z,1004.3
2017-05-06T11:49:32.400Z,1004.27
2017-05-06T11:50:32.406Z,1004.28
2017-05-06T11:51:32.414Z,1004.21
2017-05-06T11:52:32.471Z,1004.18
2017-05-06T11:53:32.429Z,1004.17
2017-05-06T11:54:32.434Z,1004.16
2017-05-06T11:55:32.441Z,1004.21
2017-05-06T11:56:32.447Z,1004.14
2017-05-06T11:57:32.455Z,1004.12
2017-05-06T11:58:32.512Z,1004.13
2017-05-06T11:59:32.468Z,1004.12
2017-05-06T12:00:32.474Z,1004.07
2017-05-06T12:01:32.507Z,1004.12
2017-05-06T12:02:32.513Z,1004.06
2017-05-06T12:03:32.495Z,1004.09
2017-05-06T12:04:32.502Z,1003.99
2017-05-06T12:05:32.508Z,1004.07
2017-05-06T12:06:32.516Z,1003.98
2017-05-06T12:07:32.523Z,1004
2017-05-06T12:08:32.530Z,1004.01